Time;durP1;ratioP1;P1;durP2;ratioP2;P2;SDS_P1;SDS_P2;PMS_P1;PMS_P2;Temp;Humidity;BMP_temperature;BMP_pressure;BME280_temperature;BME280_humidity;BME280_pressure;Samples;Min_cycle;Max_cycle;Signal;HPM_P1;HPM_P2
2023/02/04 00:01:00;;;;;;;23.03;20.95;;;;;;;2.33;62.64;100583.66;451872;115;922522;-78
2023/02/04 00:02:03;;;;;;;23.00;20.24;;;;;;;2.35;62.66;100581.66;451901;117;922493;-76
2023/02/04 00:03:06;;;;;;;22.12;20.26;;;;;;;2.38;62.56;100585.86;451873;117;922538;-74
2023/02/04 00:04:14;;;;;;;23.02;21.07;;;;;;;2.39;62.63;100580.32;452038;117;922463;-76
2023/02/04 00:05:18;;;;;;;21.36;19.64;;;;;;;2.41;62.55;100577.48;451958;115;922464;-75
2023/02/04 00:06:21;;;;;;;22.36;20.39;;;;;;;2.40;62.54;100573.94;451708;117;922556;-76
2023/02/04 00:07:25;;;;;;;21.47;19.71;;;;;;;2.42;62.52;100571.94;451805;117;930563;-76
2023/02/04 00:08:28;;;;;;;20.36;18.60;;;;;;;2.45;62.49;100570.76;451940;116;922492;-77
2023/02/04 00:09:31;;;;;;;20.54;18.62;;;;;;;2.45;62.38;100570.76;447745;118;922528;-75
2023/02/04 00:10:34;;;;;;;20.61;18.92;;;;;;;2.46;62.35;100567.91;448656;116;922833;-76
2023/02/04 00:11:37;;;;;;;20.49;18.72;;;;;;;2.47;62.31;100561.53;454312;116;922875;-76
2023/02/04 00:12:40;;;;;;;21.14;19.29;;;;;;;2.48;62.36;100565.06;454940;116;922601;-77
2023/02/04 00:13:43;;;;;;;20.77;18.85;;;;;;;2.49;62.34;100566.73;455922;113;922460;-76
2023/02/04 00:14:46;;;;;;;20.34;18.58;;;;;;;2.49;62.22;100564.88;455927;116;923159;-76
2023/02/04 00:15:49;;;;;;;20.29;18.24;;;;;;;2.51;62.29;100560.19;456071;114;922518;-75
2023/02/04 00:16:52;;;;;;;20.94;19.14;;;;;;;2.51;62.27;100554.80;455945;116;922512;-75
2023/02/04 00:17:56;;;;;;;20.08;18.23;;;;;;;2.53;62.25;100565.41;455973;116;922553;-75
2023/02/04 00:18:59;;;;;;;19.69;18.07;;;;;;;2.54;62.19;100561.70;455835;116;922614;-77
2023/02/04 00:20:02;;;;;;;19.92;18.18;;;;;;;2.52;62.08;100566.41;455921;116;922557;-76
2023/02/04 00:21:06;;;;;;;20.01;18.26;;;;;;;2.54;62.11;100558.19;461659;114;922592;-77
2023/02/04 00:22:09;;;;;;;20.81;18.98;;;;;;;2.52;62.05;100555.66;463936;114;930496;-74
2023/02/04 00:23:12;;;;;;;21.69;19.53;;;;;;;2.54;61.98;100560.88;462308;114;922445;-74
2023/02/04 00:24:15;;;;;;;21.81;19.47;;;;;;;2.53;62.02;100556.50;456882;114;930666;-78
2023/02/04 00:25:18;;;;;;;20.37;18.60;;;;;;;2.55;62.06;100557.16;456707;114;922624;-77
2023/02/04 00:26:21;;;;;;;19.09;17.44;;;;;;;2.54;62.05;100556.31;457865;114;922505;-78
2023/02/04 00:27:24;;;;;;;18.92;17.31;;;;;;;2.56;62.13;100553.47;457391;114;923148;-75
2023/02/04 00:28:28;;;;;;;20.81;18.96;;;;;;;2.56;62.17;100550.77;456339;114;923421;-77
2023/02/04 00:29:31;;;;;;;20.84;18.94;;;;;;;2.57;62.09;100545.23;455994;116;922447;-78
2023/02/04 00:30:34;;;;;;;21.12;19.32;;;;;;;2.58;62.15;100551.46;456289;114;923192;-80
2023/02/04 00:31:37;;;;;;;21.47;19.64;;;;;;;2.58;61.99;100546.08;455888;116;922790;-76
2023/02/04 00:32:40;;;;;;;20.89;19.01;;;;;;;2.58;61.93;100549.62;459450;114;930620;-78
2023/02/04 00:33:44;;;;;;;22.65;20.50;;;;;;;2.57;61.92;100545.23;464018;114;922540;-77
2023/02/04 00:34:47;;;;;;;22.24;20.23;;;;;;;2.57;61.91;100547.08;451812;116;922552;-77
2023/02/04 00:35:51;;;;;;;24.68;22.22;;;;;;;2.55;61.96;100547.23;455672;114;922562;-78
2023/02/04 00:36:56;;;;;;;24.29;21.91;;;;;;;2.54;61.83;100542.86;448045;118;922755;-80
2023/02/04 00:37:59;;;;;;;26.22;23.44;;;;;;;2.51;61.71;100549.42;456057;116;922667;-79
2023/02/04 00:39:02;;;;;;;27.84;24.91;;;;;;;2.48;61.67;100546.23;455554;115;922481;-77
2023/02/04 00:40:06;;;;;;;28.61;25.76;;;;;;;2.46;61.72;100540.16;461216;115;922566;-78
2023/02/04 00:41:09;;;;;;;28.79;26.14;;;;;;;2.43;61.67;100546.69;445560;117;922526;-78
2023/02/04 00:42:14;;;;;;;28.31;25.51;;;;;;;2.40;61.67;100540.80;448815;118;922455;-77
2023/02/04 00:43:18;;;;;;;26.82;24.21;;;;;;;2.39;61.62;100548.03;448458;117;922772;-76
2023/02/04 00:44:21;;;;;;;24.72;22.42;;;;;;;2.36;61.53;100544.84;448135;115;930246;-77
2023/02/04 00:45:24;;;;;;;23.24;21.11;;;;;;;2.32;61.55;100543.45;452305;116;922588;-76
2023/02/04 00:46:27;;;;;;;23.62;21.42;;;;;;;2.28;61.56;100548.33;446654;118;922601;-78
2023/02/04 00:47:30;;;;;;;23.38;21.12;;;;;;;2.25;61.61;100545.13;455939;116;930495;-76
2023/02/04 00:48:34;;;;;;;21.62;19.87;;;;;;;2.22;61.69;100551.66;458399;115;922530;-76
2023/02/04 00:49:37;;;;;;;21.32;19.62;;;;;;;2.20;61.65;100539.39;453971;116;922409;-77
2023/02/04 00:50:41;;;;;;;21.63;19.51;;;;;;;2.17;61.66;100540.55;455927;114;922581;-74
2023/02/04 00:51:45;;;;;;;20.24;18.49;;;;;;;2.15;61.81;100547.92;457247;115;930430;-74
2023/02/04 00:52:48;;;;;;;19.40;17.65;;;;;;;2.14;61.78;100540.04;458746;115;922529;-78
2023/02/04 00:53:51;;;;;;;19.61;17.94;;;;;;;2.11;61.93;100541.19;457159;114;922574;-77
2023/02/04 00:54:54;;;;;;;18.54;16.97;;;;;;;2.11;61.95;100541.19;455896;116;922620;-76
2023/02/04 00:55:57;;;;;;;17.12;15.81;;;;;;;2.11;61.98;100541.19;456915;114;922592;-79
2023/02/04 00:57:00;;;;;;;18.34;16.73;;;;;;;2.09;61.96;100544.03;455931;116;922521;-79
2023/02/04 00:58:03;;;;;;;18.51;16.96;;;;;;;2.09;61.95;100535.16;455941;116;922610;-77
2023/02/04 00:59:07;;;;;;;18.14;16.59;;;;;;;2.09;61.95;100545.91;455985;116;922522;-76
2023/02/04 01:00:11;;;;;;;17.86;16.29;;;;;;;2.08;62.00;100542.37;452263;115;922556;-75
2023/02/04 01:01:14;;;;;;;19.85;18.11;;;;;;;2.10;62.06;100547.56;449371;118;930465;-75
2023/02/04 01:02:17;;;;;;;18.27;16.58;;;;;;;2.11;62.02;100541.19;453587;116;922428;-75
2023/02/04 01:03:21;;;;;;;18.52;16.87;;;;;;;2.11;61.96;100538.50;454708;116;922477;-78
2023/02/04 01:04:24;;;;;;;18.69;16.91;;;;;;;2.12;61.94;100547.41;454117;116;930986;-76
2023/02/04 01:05:28;;;;;;;18.41;16.58;;;;;;;2.12;61.99;100547.41;452645;115;922756;-74
2023/02/04 01:06:31;;;;;;;17.71;16.16;;;;;;;2.12;62.02;100542.88;455754;116;922724;-76
2023/02/04 01:07:34;;;;;;;17.68;16.23;;;;;;;2.12;62.03;100542.03;454861;116;922903;-73
2023/02/04 01:08:38;;;;;;;17.44;15.94;;;;;;;2.14;61.92;100545.42;449455;118;930521;-78
2023/02/04 01:09:41;;;;;;;17.04;15.51;;;;;;;2.14;62.04;100545.42;449867;116;922611;-78
2023/02/04 01:10:44;;;;;;;17.99;16.35;;;;;;;2.15;61.93;100539.04;450055;114;922996;-77
2023/02/04 01:11:47;;;;;;;17.32;15.77;;;;;;;2.16;62.00;100546.08;446366;118;923137;-77
2023/02/04 01:12:50;;;;;;;16.83;15.46;;;;;;;2.16;61.96;100540.70;457411;116;922546;-78
2023/02/04 01:13:53;;;;;;;16.86;15.51;;;;;;;2.15;61.99;100539.86;450278;116;922696;-77
2023/02/04 01:14:56;;;;;;;16.07;14.79;;;;;;;2.16;61.94;100543.39;449552;118;922435;-77
2023/02/04 01:16:00;;;;;;;17.56;16.01;;;;;;;2.18;61.96;100541.39;450856;116;922411;-76
2023/02/04 01:17:03;;;;;;;17.17;15.68;;;;;;;2.19;62.07;100538.55;449412;118;930880;-79
2023/02/04 01:18:06;;;;;;;16.16;14.85;;;;;;;2.19;62.10;100532.33;451655;116;922580;-75
2023/02/04 01:19:09;;;;;;;17.73;16.07;;;;;;;2.21;62.11;100538.37;455818;116;922502;-76
2023/02/04 01:20:13;;;;;;;17.54;16.11;;;;;;;2.23;62.01;100544.44;454342;116;922921;-76
2023/02/04 01:21:16;;;;;;;16.61;15.03;;;;;;;2.25;62.02;100539.75;449485;118;922527;-77
2023/02/04 01:22:19;;;;;;;16.36;14.96;;;;;;;2.25;62.08;100537.91;452370;116;922547;-77
2023/02/04 01:23:22;;;;;;;17.27;15.63;;;;;;;2.28;62.05;100542.10;454996;116;922540;-78
2023/02/04 01:24:25;;;;;;;16.67;15.31;;;;;;;2.28;61.97;100539.41;452843;116;922517;-78
2023/02/04 01:25:47;;;;;;;16.11;14.76;;;;;;;2.27;61.99;100533.19;448668;116;922514;-76
2023/02/04 01:26:50;;;;;;;18.37;16.76;;;;;;;2.28;61.99;100537.56;447189;118;922541;-77
2023/02/04 01:27:53;;;;;;;17.94;16.31;;;;;;;2.27;62.03;100532.34;447197;118;922443;-76
2023/02/04 01:28:56;;;;;;;16.17;14.78;;;;;;;2.29;61.94;100538.41;447207;118;922506;-76
2023/02/04 01:30:00;;;;;;;17.09;15.44;;;;;;;2.29;62.07;100530.34;447125;118;922430;-76
2023/02/04 01:31:03;;;;;;;16.61;15.28;;;;;;;2.29;61.85;100538.41;449905;116;923119;-76
2023/02/04 01:32:06;;;;;;;16.94;15.45;;;;;;;2.30;62.00;100537.41;449507;118;922504;-76
2023/02/04 01:33:10;;;;;;;16.14;14.71;;;;;;;2.30;62.04;100534.72;449555;118;922595;-78
2023/02/04 01:34:12;;;;;;;15.99;14.68;;;;;;;2.31;61.92;100533.72;449571;118;922591;-77
2023/02/04 01:35:16;;;;;;;16.73;15.23;;;;;;;2.31;62.02;100528.34;450318;116;922519;-79
2023/02/04 01:36:20;;;;;;;14.97;13.38;;;;;;;2.32;61.93;100535.38;456105;116;922513;-79
2023/02/04 01:37:23;;;;;;;17.14;15.62;;;;;;;2.33;61.92;100531.69;454910;116;930317;-76
2023/02/04 01:38:27;;;;;;;16.04;14.71;;;;;;;2.34;62.00;100533.38;454339;114;922460;-79
2023/02/04 01:39:30;;;;;;;15.58;14.22;;;;;;;2.34;61.91;100536.08;455111;116;922531;-76
2023/02/04 01:40:33;;;;;;;15.89;14.51;;;;;;;2.36;62.05;100536.77;452854;116;922767;-78
2023/02/04 01:41:36;;;;;;;15.98;14.57;;;;;;;2.37;61.94;100535.77;449561;116;922899;-77
2023/02/04 01:42:40;;;;;;;15.82;14.13;;;;;;;2.36;61.93;100534.92;449542;118;922528;-78
2023/02/04 01:43:45;;;;;;;15.56;14.08;;;;;;;2.36;61.85;100534.08;449490;118;922866;-77
2023/02/04 01:44:48;;;;;;;15.59;14.26;;;;;;;2.35;61.85;100537.77;449305;118;930387;-77
2023/02/04 01:45:52;;;;;;;16.25;14.74;;;;;;;2.35;61.88;100537.77;449542;116;930373;-75
2023/02/04 01:46:55;;;;;;;15.73;14.22;;;;;;;2.34;61.72;100528.84;449447;118;922865;-78
2023/02/04 01:47:58;;;;;;;16.55;15.06;;;;;;;2.36;61.77;100534.08;449443;118;930378;-78
2023/02/04 01:49:02;;;;;;;15.90;14.42;;;;;;;2.36;61.79;100539.45;449517;118;922975;-76
2023/02/04 01:50:07;;;;;;;16.78;14.92;;;;;;;2.36;61.69;100544.84;451342;116;922524;-78
2023/02/04 01:51:14;;;;;;;15.83;14.45;;;;;;;2.37;61.83;100538.45;448898;118;922576;-76
2023/02/04 01:52:18;;;;;;;15.64;14.32;;;;;;;2.38;61.74;100542.80;442395;118;922654;-81
2023/02/04 01:53:24;;;;;;;15.24;13.78;;;;;;;2.38;61.77;100540.96;449471;118;922558;-77
2023/02/04 01:54:28;;;;;;;14.92;13.65;;;;;;;2.39;61.68;100544.50;449275;118;930395;-77
2023/02/04 01:55:32;;;;;;;16.23;14.94;;;;;;;2.37;61.43;100539.27;449688;116;923268;-77
2023/02/04 01:56:35;;;;;;;15.26;13.98;;;;;;;2.35;61.29;100543.14;449467;118;922543;-77
2023/02/04 01:57:39;;;;;;;15.75;14.46;;;;;;;2.31;61.27;100553.41;450555;116;923149;-76
2023/02/04 01:58:42;;;;;;;16.90;15.38;;;;;;;2.27;61.23;100552.02;453786;116;922706;-78
2023/02/04 01:59:47;;;;;;;16.50;14.91;;;;;;;2.24;61.22;100543.44;450888;116;922545;-77
2023/02/04 02:00:50;;;;;;;16.59;14.85;;;;;;;2.19;61.23;100553.84;451959;115;922536;-75
2023/02/04 02:01:53;;;;;;;17.77;16.02;;;;;;;2.15;61.17;100547.11;455494;115;922906;-77
2023/02/04 02:02:57;;;;;;;18.17;16.40;;;;;;;2.10;61.21;100550.26;455894;116;930451;-79
2023/02/04 02:04:01;;;;;;;16.95;15.37;;;;;;;2.06;61.28;100552.44;457762;115;922812;-76
2023/02/04 02:05:04;;;;;;;16.51;14.98;;;;;;;2.03;61.22;100555.46;455939;116;922835;-76
2023/02/04 02:06:09;;;;;;;16.68;15.15;;;;;;;2.01;61.44;100556.61;450741;116;922911;-77
2023/02/04 02:07:12;;;;;;;15.98;14.56;;;;;;;1.98;61.38;100549.72;447130;118;922572;-78
2023/02/04 02:08:16;;;;;;;16.89;15.19;;;;;;;1.96;61.46;100557.09;455877;116;922487;-78
2023/02/04 02:09:20;;;;;;;17.02;15.51;;;;;;;1.95;61.58;100549.18;447715;118;922461;-76
2023/02/04 02:10:23;;;;;;;16.13;14.59;;;;;;;1.94;61.79;100555.56;450531;116;922582;-77
2023/02/04 02:11:27;;;;;;;16.06;14.61;;;;;;;1.93;61.81;100549.33;450483;116;930376;-75
2023/02/04 02:12:30;;;;;;;17.81;16.18;;;;;;;1.93;62.03;100549.33;453245;115;922366;-78
2023/02/04 02:13:33;;;;;;;16.64;15.12;;;;;;;1.94;62.09;100548.34;451398;116;922514;-78
2023/02/04 02:14:36;;;;;;;18.37;16.46;;;;;;;1.96;62.29;100543.66;453116;117;923077;-78
2023/02/04 02:15:40;;;;;;;21.72;19.96;;;;;;;1.99;62.33;100551.39;455617;115;922778;-77
2023/02/04 02:16:43;;;;;;;20.23;18.52;;;;;;;2.01;62.47;100545.86;456135;115;922459;-76
2023/02/04 02:17:47;;;;;;;22.08;19.93;;;;;;;2.03;62.67;100549.23;452337;116;922716;-77
2023/02/04 02:18:53;;;;;;;19.26;16.56;;;;;;;2.06;62.72;100544.38;452171;117;922570;-77
2023/02/04 02:19:55;;;;;;;17.46;15.78;;;;;;;2.09;62.64;100544.03;451926;117;922436;-76
2023/02/04 02:21:02;;;;;;;17.48;15.79;;;;;;;2.12;62.79;100542.88;452749;115;922537;-75
2023/02/04 02:22:27;;;;;;;18.22;16.62;;;;;;;2.16;62.80;100543.39;452967;117;922117;-76
2023/02/04 02:23:42;;;;;;;17.35;15.36;;;;;;;2.17;62.62;100542.39;453344;116;922092;-75
2023/02/04 02:24:45;;;;;;;16.68;15.25;;;;;;;2.16;62.59;100538.86;453289;112;922036;-73
2023/02/04 02:25:49;;;;;;;17.37;15.74;;;;;;;2.14;62.52;100540.89;453415;114;922396;-73
2023/02/04 02:26:54;;;;;;;15.71;14.34;;;;;;;2.12;62.43;100537.50;458624;115;921992;-75
2023/02/04 02:28:01;;;;;;;16.27;14.74;;;;;;;2.10;62.59;100537.66;460827;115;922127;-74
2023/02/04 02:29:04;;;;;;;18.14;16.13;;;;;;;2.10;62.68;100537.66;453592;115;922141;-74
2023/02/04 02:30:10;;;;;;;16.35;14.91;;;;;;;2.12;62.63;100542.03;452312;117;923291;-78
2023/02/04 02:31:15;;;;;;;16.62;15.15;;;;;;;2.14;62.83;100535.51;452602;115;930474;-77
2023/02/04 02:32:19;;;;;;;16.60;15.09;;;;;;;2.17;62.77;100545.08;448302;116;922638;-76
2023/02/04 02:33:24;;;;;;;16.36;14.97;;;;;;;2.19;62.83;100543.09;451099;115;922481;-77
2023/02/04 02:34:29;;;;;;;16.76;15.38;;;;;;;2.21;62.95;100544.59;456269;116;922466;-77
2023/02/04 02:35:32;;;;;;;15.15;13.87;;;;;;;2.24;62.89;100535.37;451701;115;922391;-78
2023/02/04 02:36:36;;;;;;;16.81;15.39;;;;;;;2.28;63.01;100542.10;450992;117;922327;-78
2023/02/04 02:37:39;;;;;;;16.41;14.91;;;;;;;2.29;63.01;100544.64;451337;115;930317;-75
2023/02/04 02:38:42;;;;;;;16.12;14.71;;;;;;;2.31;62.91;100545.33;450982;116;922404;-75
2023/02/04 02:39:45;;;;;;;17.23;15.46;;;;;;;2.32;62.90;100552.37;456541;116;922570;-76
2023/02/04 02:40:50;;;;;;;17.06;15.38;;;;;;;2.33;62.79;100540.61;456233;115;922268;-76
2023/02/04 02:41:55;;;;;;;17.29;15.69;;;;;;;2.33;62.88;100537.08;454275;116;923098;-76
2023/02/04 02:42:58;;;;;;;15.73;14.38;;;;;;;2.37;63.02;100538.45;453679;117;930171;-76
2023/02/04 02:44:02;;;;;;;16.44;14.96;;;;;;;2.39;63.06;100539.11;448527;116;922291;-76
2023/02/04 02:45:09;;;;;;;16.34;14.93;;;;;;;2.42;63.04;100533.42;456389;116;922204;-75
2023/02/04 02:46:13;;;;;;;16.89;15.22;;;;;;;2.44;63.04;100531.39;452070;116;922532;-79
2023/02/04 02:47:19;;;;;;;15.76;14.40;;;;;;;2.45;63.07;100531.23;448971;118;922490;-76
2023/02/04 02:48:22;;;;;;;16.44;14.99;;;;;;;2.48;62.94;100536.28;454360;116;922746;-77
2023/02/04 02:49:27;;;;;;;17.21;15.67;;;;;;;2.50;63.01;100531.59;452408;117;922175;-77
2023/02/04 02:50:32;;;;;;;17.17;15.28;;;;;;;2.53;62.97;100530.43;454197;116;922780;-75
2023/02/04 02:51:36;;;;;;;16.26;14.79;;;;;;;2.53;63.07;100525.05;456201;116;922239;-78
2023/02/04 02:52:39;;;;;;;16.53;14.92;;;;;;;2.56;63.05;100523.86;456525;116;922160;-78
2023/02/04 02:53:42;;;;;;;15.76;14.52;;;;;;;2.57;62.94;100529.09;456772;116;922563;-77
2023/02/04 02:54:45;;;;;;;16.56;14.82;;;;;;;2.59;62.96;100526.23;456873;116;922227;-76
2023/02/04 02:55:50;;;;;;;17.12;15.56;;;;;;;2.61;63.00;100524.20;457205;114;922371;-77
2023/02/04 02:56:57;;;;;;;16.29;14.90;;;;;;;2.61;62.77;100522.36;456517;116;922289;-76
2023/02/04 02:58:00;;;;;;;15.89;14.31;;;;;;;2.62;62.82;100515.13;456804;114;922418;-76
2023/02/04 02:59:15;;;;;;;15.87;14.52;;;;;;;2.61;62.84;100522.36;456720;116;922414;-75
2023/02/04 03:00:24;;;;;;;17.07;15.55;;;;;;;2.63;62.73;100520.36;457949;114;922663;-75
2023/02/04 03:01:28;;;;;;;47.45;26.72;;;;;;;2.63;62.73;100511.44;464666;114;922648;-75
2023/02/04 03:02:32;;;;;;;46.65;27.98;;;;;;;2.64;62.86;100521.20;451826;116;922125;-77
2023/02/04 03:03:41;;;;;;;55.38;30.26;;;;;;;2.64;62.91;100518.51;444697;116;922521;-78
2023/02/04 03:04:48;;;;;;;82.04;41.23;;;;;;;2.64;62.77;100516.66;456692;116;922253;-77
2023/02/04 03:05:54;;;;;;;85.78;44.83;;;;;;;2.65;62.87;100517.48;449065;116;922371;-78
2023/02/04 03:06:58;;;;;;;98.94;49.96;;;;;;;2.64;62.85;100513.97;451885;115;922319;-77
2023/02/04 03:08:01;;;;;;;107.16;52.69;;;;;;;2.65;62.79;100514.78;451414;115;922161;-76
2023/02/04 03:09:05;;;;;;;111.30;58.55;;;;;;;2.64;62.93;100511.28;456238;116;922415;-77
2023/02/04 03:10:08;;;;;;;124.75;63.15;;;;;;;2.65;62.78;100501.33;453868;116;922313;-76
2023/02/04 03:11:14;;;;;;;123.37;63.51;;;;;;;2.65;62.97;100504.86;449506;116;922342;-76
2023/02/04 03:12:17;;;;;;;122.73;64.16;;;;;;;2.65;62.89;100506.70;450939;118;922162;-77
2023/02/04 03:13:21;;;;;;;124.29;64.11;;;;;;;2.66;63.08;100509.24;452966;116;922449;-78
2023/02/04 03:14:25;;;;;;;113.77;57.84;;;;;;;2.67;63.01;100510.09;455900;116;923241;-78
2023/02/04 03:15:30;;;;;;;104.14;55.56;;;;;;;2.67;63.04;100502.86;456317;114;922596;-78
2023/02/04 03:16:36;;;;;;;92.44;50.67;;;;;;;2.69;63.14;100508.08;455735;116;930683;-76
2023/02/04 03:17:40;;;;;;;80.76;45.64;;;;;;;2.69;63.04;100508.93;463190;114;922686;-79
2023/02/04 03:18:43;;;;;;;77.31;44.24;;;;;;;2.71;63.16;100500.66;463802;114;922984;-78
2023/02/04 03:19:46;;;;;;;68.02;38.01;;;;;;;2.72;63.19;100497.81;463992;114;922438;-77
2023/02/04 03:20:51;;;;;;;51.76;31.16;;;;;;;2.73;63.02;100494.13;455470;116;922529;-77
2023/02/04 03:21:55;;;;;;;47.70;28.98;;;;;;;2.73;63.11;100495.97;456250;114;922684;-77
2023/02/04 03:22:58;;;;;;;31.34;23.89;;;;;;;2.74;63.10;100494.97;462563;114;922578;-76
2023/02/04 03:24:02;;;;;;;32.31;24.48;;;;;;;2.74;62.99;100494.97;456670;116;922761;-78
2023/02/04 03:25:05;;;;;;;26.35;22.34;;;;;;;2.73;63.08;100491.43;459237;114;922729;-77
2023/02/04 03:26:09;;;;;;;24.38;20.70;;;;;;;2.73;63.14;100496.81;449646;116;922938;-76
2023/02/04 03:27:14;;;;;;;20.33;18.28;;;;;;;2.74;63.10;100501.19;449208;117;922230;-75
2023/02/04 03:28:19;;;;;;;19.24;17.55;;;;;;;2.74;63.03;100495.81;456847;116;922190;-75
2023/02/04 03:29:22;;;;;;;19.98;17.81;;;;;;;2.74;63.17;100498.50;456674;116;930082;-77
2023/02/04 03:30:25;;;;;;;22.72;17.96;;;;;;;2.75;63.19;100496.66;456807;115;929939;-75
2023/02/04 03:31:28;;;;;;;19.33;17.55;;;;;;;2.75;63.18;100500.19;456626;116;922299;-77
2023/02/04 03:32:31;;;;;;;19.11;17.41;;;;;;;2.74;63.25;100498.50;452707;116;922112;-77
2023/02/04 03:33:35;;;;;;;18.53;16.66;;;;;;;2.74;63.24;100501.19;450723;116;922238;-77
2023/02/04 03:34:38;;;;;;;18.71;17.11;;;;;;;2.74;63.25;100489.58;451261;117;922637;-75
2023/02/04 03:35:41;;;;;;;17.74;16.30;;;;;;;2.74;63.19;100489.58;453061;116;922229;-76
2023/02/04 03:36:44;;;;;;;17.13;15.64;;;;;;;2.74;63.29;100490.42;456810;116;922258;-77
2023/02/04 03:37:47;;;;;;;17.16;15.56;;;;;;;2.75;63.36;100491.27;452700;116;922255;-77
2023/02/04 03:38:51;;;;;;;16.98;15.59;;;;;;;2.74;63.27;100476.97;448947;118;922143;-76
2023/02/04 03:39:54;;;;;;;17.21;15.76;;;;;;;2.74;63.36;100485.05;453626;116;922315;-76
2023/02/04 03:40:57;;;;;;;18.59;16.76;;;;;;;2.74;63.26;100493.12;455580;115;922454;-74
2023/02/04 03:41:59;;;;;;;17.41;15.72;;;;;;;2.76;63.28;100487.55;449539;116;922237;-78
2023/02/04 03:43:03;;;;;;;18.67;17.08;;;;;;;2.76;63.29;100496.47;454258;117;922104;-76
2023/02/04 03:44:06;;;;;;;17.16;15.65;;;;;;;2.76;63.32;100491.08;454220;117;921987;-76
2023/02/04 03:45:09;;;;;;;17.77;16.33;;;;;;;2.75;63.32;100491.27;453949;116;922130;-77
2023/02/04 03:46:13;;;;;;;17.14;15.53;;;;;;;2.76;63.34;100492.93;447799;118;922327;-77
2023/02/04 03:47:16;;;;;;;17.62;15.71;;;;;;;2.75;63.36;100500.19;449056;118;930286;-77
2023/02/04 03:48:19;;;;;;;17.50;16.14;;;;;;;2.74;63.41;100501.19;448615;118;922496;-73
2023/02/04 03:49:23;;;;;;;17.95;16.25;;;;;;;2.75;63.39;100491.27;451869;116;923658;-76
2023/02/04 03:50:26;;;;;;;16.63;15.24;;;;;;;2.73;63.38;100494.13;450112;116;922219;-79
2023/02/04 03:51:29;;;;;;;18.18;16.77;;;;;;;2.73;63.42;100487.89;463840;114;922558;-75
2023/02/04 03:52:32;;;;;;;16.51;15.18;;;;;;;2.71;63.43;100496.12;449814;115;922616;-75
2023/02/04 03:53:35;;;;;;;17.81;16.36;;;;;;;2.70;63.46;100497.13;456162;116;922494;-75
2023/02/04 03:54:38;;;;;;;18.58;16.35;;;;;;;2.70;63.37;100490.93;457597;115;922888;-77
2023/02/04 03:55:41;;;;;;;17.16;15.55;;;;;;;2.68;63.43;100491.09;451473;114;922493;-76
2023/02/04 03:56:44;;;;;;;17.74;16.17;;;;;;;2.68;63.58;100498.31;455521;116;922368;-76
2023/02/04 03:57:47;;;;;;;17.21;15.63;;;;;;;2.67;63.61;100499.32;450492;116;922438;-75
2023/02/04 03:58:51;;;;;;;17.77;16.12;;;;;;;2.66;63.52;100495.78;456097;116;922547;-77
2023/02/04 03:59:54;;;;;;;16.61;15.24;;;;;;;2.64;63.57;100500.52;456124;115;922668;-78
2023/02/04 04:00:57;;;;;;;17.94;16.38;;;;;;;2.64;63.72;100488.91;455989;114;922514;-77
2023/02/04 04:02:00;;;;;;;16.61;15.21;;;;;;;2.63;63.81;100490.75;454746;116;922535;-78
2023/02/04 04:03:03;;;;;;;18.09;16.59;;;;;;;2.62;63.84;100493.59;444878;119;922925;-77
2023/02/04 04:04:06;;;;;;;18.60;16.91;;;;;;;2.62;63.79;100491.75;444859;119;922688;-78
2023/02/04 04:05:10;;;;;;;18.39;16.68;;;;;;;2.62;63.79;100496.28;444807;119;922519;-76
2023/02/04 04:06:13;;;;;;;18.07;16.48;;;;;;;2.61;63.94;100490.06;437957;121;922518;-75
2023/02/04 04:07:17;;;;;;;18.33;16.73;;;;;;;2.61;63.86;100495.44;437030;121;922767;-77
2023/02/04 04:08:20;;;;;;;18.36;16.81;;;;;;;2.62;64.04;100499.82;445748;117;922524;-76
2023/02/04 04:09:23;;;;;;;17.16;15.76;;;;;;;2.62;63.96;100497.13;453718;117;922756;-78
2023/02/04 04:10:28;;;;;;;17.73;16.28;;;;;;;2.62;64.06;100497.13;455783;115;922563;-77
2023/02/04 04:11:31;;;;;;;18.38;16.76;;;;;;;2.62;64.00;100507.90;456797;115;922397;-75
2023/02/04 04:12:34;;;;;;;18.67;16.92;;;;;;;2.61;64.03;100500.83;454160;116;922762;-75
2023/02/04 04:13:37;;;;;;;18.51;16.82;;;;;;;2.61;64.03;100503.52;454137;117;922825;-78
2023/02/04 04:14:40;;;;;;;19.17;17.24;;;;;;;2.61;63.91;100510.75;454162;117;922478;-77
2023/02/04 04:15:42;;;;;;;18.87;17.06;;;;;;;2.59;63.87;100516.32;454286;115;922489;-80
2023/02/04 04:16:46;;;;;;;18.69;17.25;;;;;;;2.58;63.84;100511.94;453679;117;922593;-79
2023/02/04 04:17:49;;;;;;;18.99;17.36;;;;;;;2.57;63.80;100518.32;453694;117;922653;-77
2023/02/04 04:18:52;;;;;;;19.13;17.45;;;;;;;2.55;63.82;100522.17;453715;117;922979;-77
2023/02/04 04:19:55;;;;;;;17.96;16.27;;;;;;;2.51;63.88;100514.44;453674;117;923165;-77
2023/02/04 04:20:58;;;;;;;18.82;17.24;;;;;;;2.49;63.78;100519.13;454864;115;922510;-77
2023/02/04 04:22:01;;;;;;;17.89;16.46;;;;;;;2.45;63.78;100512.41;453558;117;922897;-76
2023/02/04 04:23:04;;;;;;;19.11;17.27;;;;;;;2.43;63.78;100511.71;453705;117;922480;-76
2023/02/04 04:24:07;;;;;;;18.10;16.48;;;;;;;2.39;63.72;100517.59;453668;117;922426;-75
2023/02/04 04:25:10;;;;;;;19.56;17.83;;;;;;;2.36;63.83;100517.94;453692;115;922494;-76
2023/02/04 04:26:13;;;;;;;18.01;16.39;;;;;;;2.32;63.89;100512.02;453667;117;922938;-77
2023/02/04 04:27:17;;;;;;;18.89;17.24;;;;;;;2.29;63.91;100517.73;453693;117;922488;-77
2023/02/04 04:28:20;;;;;;;19.09;17.35;;;;;;;2.27;63.86;100514.36;453684;117;923261;-77
2023/02/04 04:29:23;;;;;;;18.86;17.27;;;;;;;2.25;64.02;100515.54;454279;115;923372;-76
2023/02/04 04:30:26;;;;;;;17.57;16.20;;;;;;;2.22;64.14;100518.53;455435;115;922898;-74
2023/02/04 04:31:29;;;;;;;18.26;16.71;;;;;;;2.21;64.29;100515.00;454117;116;922607;-76
2023/02/04 04:32:32;;;;;;;17.61;16.21;;;;;;;2.21;64.34;100517.70;454160;117;922530;-76
2023/02/04 04:33:35;;;;;;;17.91;16.14;;;;;;;2.21;64.37;100519.53;453694;116;922453;-78
2023/02/04 04:34:38;;;;;;;17.38;15.86;;;;;;;2.20;64.40;100516.03;453669;117;922541;-77
2023/02/04 04:35:41;;;;;;;18.77;17.23;;;;;;;2.19;64.54;100518.87;454074;115;922786;-78
2023/02/04 04:36:44;;;;;;;17.36;16.01;;;;;;;2.18;64.58;100514.50;453578;117;922732;-77
2023/02/04 04:37:47;;;;;;;17.73;16.26;;;;;;;2.17;64.55;100520.88;460616;115;923438;-77
2023/02/04 04:38:50;;;;;;;18.52;16.90;;;;;;;2.16;64.67;100511.96;461652;115;922449;-75
2023/02/04 04:39:53;;;;;;;18.24;16.54;;;;;;;2.17;64.96;100516.34;454306;115;922466;-77
2023/02/04 04:40:56;;;;;;;18.51;16.79;;;;;;;2.19;65.16;100513.50;459198;115;922507;-77
2023/02/04 04:41:59;;;;;;;18.74;17.14;;;;;;;2.21;65.38;100512.31;460147;114;922411;-75
2023/02/04 04:43:03;;;;;;;18.82;17.11;;;;;;;2.26;65.48;100519.92;453651;117;922505;-78
2023/02/04 04:44:06;;;;;;;18.79;17.13;;;;;;;2.28;65.47;100513.36;453645;117;922495;-76
2023/02/04 04:45:10;;;;;;;18.98;17.21;;;;;;;2.32;65.65;100517.39;444255;119;923163;-76
2023/02/04 04:46:14;;;;;;;19.00;17.22;;;;;;;2.35;65.70;100514.39;442511;120;922560;-78
2023/02/04 04:47:17;;;;;;;16.73;15.44;;;;;;;2.40;65.78;100519.28;445049;117;922356;-79
2023/02/04 04:48:20;;;;;;;18.00;16.49;;;;;;;2.43;65.71;100524.32;437447;121;922771;-78
2023/02/04 04:49:23;;;;;;;20.08;18.20;;;;;;;2.46;65.81;100516.78;437323;121;922356;-77
2023/02/04 04:50:27;;;;;;;17.95;16.49;;;;;;;2.48;65.84;100522.82;438832;119;930800;-76